Sebastián Arias

Olheiro-Chefe - Aldosivi
13 Fev 2028
Domingo
Processo

Personalidade

Adaptabilidade (16) Ambição (4) Controvérsia (3) Lealdade (6) Pressão (3) Profissionalismo (10) Espírito Esportivo (6) Temperamento (1)

Perfil

Estilo de Treinamento Democrático
Licença Nacional A
Determinação 12
Gestão de Pessoas 8
Motivação 12
Disciplina 5
Satisfação no Trabalho
100%
Fadiga
0%
Função Olheiro-Chefe
Salário 25.2K p/s
Contrato 14.03.2030

Desempenho

Comportamento Bom
Eficácia do Treinamento
31%
Desenvolvimento do Jogador
35%
Prevenção de Lesões
60%
Implementação Tática
35%

Eventos Recentes

Participou de uma reunião de recrutamento agora
Recomendou um alvo de transferência agora
Recomendou um alvo de transferência agora
Recomendou um alvo de transferência agora
Recomendou um alvo de transferência agora
Recomendou um alvo de transferência agora
Recomendou um alvo de transferência 7d atrás
Recomendou um alvo de transferência 7d atrás

Monitorando agora

180
Jogador Clube Status Habilidade Confiança Observado Última observação Último voto
Tobias Mohr Farense Negociando 117 / 117 68% 1 01.12.2027 Aprovar
Lucas Barrientos Los Andes Negociando 100 / 98 79% 1 14.06.2027 Aprovar
Seedy Jatta Austin FC Negociando 118 / 122 67% 1 01.06.2027 Aprovar
Gabriel Vázquez Quilmes Negociando 100 / 114 71% 1 01.06.2027 Aprovar
Jefry Zapata Aldosivi Negociando 118 / 118 66% 1 01.06.2027 Aprovar
Luciano Nieto Temperley Negociando 113 / 113 66% 1 01.06.2027 Aprovar
Adrián Bernabé Parma Ativo 135 / 134 40% 3 30.05.2027 -
Enrico Delprato Parma Ativo 140 / 145 40% 2 30.05.2027 -
Willem Geubbels Lecce Ativo 134 / 125 40% 4 29.05.2027 -
Amin Sarr Hellas Verona Ativo 129 / 130 40% 5 26.05.2027 -
Stefano Di Mario Virtus Entella Ativo 122 / 129 40% 1 26.05.2027 -
Oumar Solet Udinese Ativo 150 / 143 40% 2 25.05.2027 -
Mitchel Bakker Modena Ativo 134 / 130 40% 1 25.05.2027 -
Giuseppe Di Serio Spezia Ativo 126 / 119 40% 1 24.05.2027 -
Zakaria Aboukhlal Torino Ativo 130 / 127 40% 3 22.05.2027 -
Stiven Shpendi Empoli Ativo 127 / 120 40% 7 21.05.2027 -
Ilyas Ansah Hull City Ativo 134 / 134 40% 7 21.05.2027 -
Lorenzo Colombo Genoa Ativo 140 / 132 40% 5 20.05.2027 -
Mathys Tel Tottenham Ativo 137 / 153 40% 1 20.05.2027 -
Lucas Da Cunha Como Ativo 147 / 137 40% 3 19.05.2027 -
João Félix Dinamo Moscow Ativo 150 / 151 40% 2 19.05.2027 -
Matteo Lovato Padova Ativo 131 / 127 40% 2 19.05.2027 -
Emanuele Scipioni Monopoli Ativo 106 / 111 40% 1 19.05.2027 -
Ekain Orobengoa Real Sociedad Ativo 98 / 113 40% 5 18.05.2027 -
Camillo Tavernelli Arezzo Ativo 123 / 106 40% 3 18.05.2027 -
Santiago Pierotti Lecce Ativo 128 / 122 40% 5 18.05.2027 -
Job Ochieng Real Sociedad Ativo 111 / 110 40% 4 17.05.2027 -
Nicola Pietrangeli Juve Stabia Ativo 119 / 112 40% 1 16.05.2027 -
Giorgi Kvernadze Frosinone Ativo 120 / 118 40% 4 14.05.2027 -
David Romero Parma Ativo 125 / 122 40% 4 13.05.2027 -
Emanuele Schimmenti Potenza Ativo 105 / 102 40% 1 13.05.2027 -
Sindre Walle Egeli Udinese Ativo 133 / 128 40% 2 12.05.2027 -
Kane Drummond Oldham Athletic Ativo 95 / 92 40% 1 12.05.2027 -
Nicolò Zaniolo Udinese Ativo 149 / 139 40% 4 11.05.2027 -
Odilon Kossounou Atalanta Ativo 145 / 150 40% 1 11.05.2027 -
Nadir Zortea Bologna Ativo 141 / 135 40% 2 10.05.2027 -
Ilario Monterisi Frosinone Ativo 126 / 123 40% 2 10.05.2027 -
John Yeboah Venezia Ativo 124 / 126 40% 1 09.05.2027 -
Tommaso Pobega Bologna Ativo 142 / 131 40% 1 08.05.2027 -
Filippo Distefano Empoli Ativo 115 / 109 40% 2 06.05.2027 -
Niccolò Pierozzi Palermo Ativo 117 / 129 40% 1 05.05.2027 -
Danilo Veiga Lecce Ativo 118 / 124 40% 1 05.05.2027 -
Trevoh Chalobah Como Ativo 149 / 152 40% 2 04.05.2027 -
Alessandro Buongiorno Cagliari Ativo 160 / 157 40% 2 03.05.2027 Mais informações
Raoul Bellanova Atalanta Ativo 151 / 149 40% 3 02.05.2027 -
Gianluca Busio Venezia Ativo 134 / 136 40% 1 02.05.2027 -
Cesare Casadei Torino Ativo 134 / 144 40% 2 30.04.2027 -
Francesco Petito Dolomiti Bellunesi Ativo 98 / 97 40% 1 30.04.2027 -
Jacques Siwe Rubin Ativo 122 / 109 40% 2 25.04.2027 -
Billy Gilmour Napoli Ativo 139 / 156 40% 2 23.04.2027 -
Bjorn Meijer Sampdoria Ativo 119 / 115 40% 2 23.04.2027 -
Alejandro Viniegra Botev Vratsa Ativo 100 / 93 40% 1 20.04.2027 -
Brayan Gil Baltika Ativo 118 / 125 40% 2 16.04.2027 -
Petar Stanić Ludogorets Ativo 129 / 134 40% 1 16.04.2027 -
Wandile Duba ASO Chlef Ativo 104 / 114 40% 2 11.04.2027 -
Stephen Amankona Aduana Stars Ativo 94 / 90 40% 3 08.04.2027 -
Luca Moro Padova Ativo 122 / 121 40% 1 08.04.2027 -
Alessio Nepi Perugia Ativo 98 / 102 40% 2 01.04.2027 -
Christian Saydee Wigan Athletic Ativo 114 / 119 40% 2 27.03.2027 -
Tyrese Campbell Sheffield United Ativo 122 / 129 40% 8 26.03.2027 -
Leighton Clarkson Blackpool Ativo 112 / 125 40% 2 26.03.2027 -
Brooke Norton-Cuffy Hull City Ativo 141 / 136 40% 4 26.03.2027 -
Mees Rijks Bristol Rovers Ativo 110 / 102 40% 2 26.03.2027 -
Fábio Tavares Burton Albion Ativo 104 / 95 40% 2 26.03.2027 -
Alfie Devine Preston Ativo 119 / 115 40% 1 26.03.2027 -
Max Bird Birmingham Ativo 130 / 126 40% 4 24.03.2027 -
Harrison Burrows Sheffield United Ativo 134 / 125 40% 1 24.03.2027 -
Cian Ashford Cardiff City Ativo 117 / 128 40% 1 24.03.2027 -
Harry Clarke Preston Ativo 135 / 126 40% 2 22.03.2027 -
Joel Bagan Cardiff City Ativo 121 / 117 40% 1 22.03.2027 -
Sam Bell Bristol City Ativo 117 / 113 40% 3 21.03.2027 -
Luis Caicedo Spartak 1918 Ativo 95 / 86 40% 1 21.03.2027 -
Tyreece Campbell Charlton Athletic Ativo 115 / 128 40% 2 18.03.2027 -
Jacob Greaves Ipswich Town Ativo 133 / 124 40% 3 18.03.2027 -
Joe Gelhardt Hull City Ativo 128 / 138 40% 3 18.03.2027 -
Florentino Luís Ipswich Town Ativo 140 / 143 40% 2 17.03.2027 -
Giacomo Raspadori Atalanta Ativo 143 / 141 40% 3 15.03.2027 -
Bradley Fink Wycombe Wanderers Ativo 111 / 110 40% 1 14.03.2027 -
Yousef Salech Cardiff City Ativo 120 / 119 40% 7 13.03.2027 -
Abu Kamara Portsmouth Ativo 120 / 123 40% 5 09.03.2027 -
Dale Taylor Blackpool Ativo 115 / 113 40% 2 09.03.2027 -
Bobby Clark Derby County Ativo 120 / 126 40% 1 09.03.2027 -
Koki Saito Queens Park Rangers Ativo 118 / 120 40% 1 09.03.2027 -
Josh Coburn Millwall Ativo 117 / 116 40% 1 02.03.2027 -
Malik Mothersille Stockport County Ativo 118 / 117 40% 1 01.03.2027 -
Rocco Vata Watford Ativo 123 / 129 40% 2 28.02.2027 -
Jack Currie Oxford United Ativo 130 / 129 40% 2 27.02.2027 -
Aune Heggebø West Bromwich Albion Ativo 132 / 118 40% 3 27.02.2027 -
Toby Collyer West Bromwich Albion Ativo 122 / 127 40% 1 27.02.2027 -
Mohamed-Ali Cho Hull City Ativo 135 / 127 40% 3 26.02.2027 -
Will Swan Bradford City Ativo 106 / 103 40% 1 23.02.2027 -
Assane Diao Como Ativo 144 / 158 40% 1 23.02.2027 -
Lewis Ferguson Bologna Ativo 142 / 140 40% 1 23.02.2027 -
Álex Centelles Levski Ativo 130 / 123 40% 1 23.02.2027 -
Marezi Portsmouth Ativo 128 / 133 40% 2 20.02.2027 -
Igor Jesus Nottingham Forest Ativo 139 / 148 40% 1 19.02.2027 -
Lorent Tolaj Plymouth Argyle Ativo 126 / 111 40% 2 18.02.2027 -
Welington Southampton Ativo 129 / 130 40% 1 18.02.2027 -
Luke McNally Bristol City Ativo 135 / 138 40% 1 18.02.2027 -
Dara O'Shea Ipswich Town Ativo 136 / 136 40% 1 18.02.2027 -
Samuel Edozie Southampton Ativo 128 / 123 40% 1 17.02.2027 -
Lee Buchanan Sheffield Wednesday Ativo 127 / 115 40% 2 16.02.2027 -
Edoardo Bove Watford Ativo 123 / 129 40% 2 15.02.2027 -
Shea Charles Southampton Ativo 141 / 140 40% 1 15.02.2027 -
Rhian Brewster Oleksandriya Ativo 123 / 115 40% 2 13.02.2027 -
Armstrong Oko-Flex Levski Ativo 119 / 121 40% 1 13.02.2027 -
Sam Greenwood Bristol City Ativo 116 / 127 40% 2 11.02.2027 -
Japhet Tanganga Sheffield United Ativo 135 / 120 40% 1 11.02.2027 -
Jayden Bogle Leeds United Ativo 134 / 148 40% 1 09.02.2027 -
Berna CSKA 1948 Ativo 118 / 114 40% 1 06.02.2027 -
Oliver Skipp Leicester City Ativo 136 / 131 40% 1 05.02.2027 -
Nicolas Madsen Queens Park Rangers Ativo 122 / 130 40% 1 28.12.2026 -
Kristoffer Lund Birmingham Ativo 117 / 131 40% 2 21.12.2026 -
Sampson Dweh Mallorca Negociando 133 / 134 66% 1 01.12.2026 Aprovar
Matej Trusa DAC Dunajska Streda Ativo 120 / 104 40% 1 01.12.2026 -
Ammar Ramadan DAC Dunajska Streda Ativo 126 / 123 40% 1 01.12.2026 -
Matías Laurino Gornik Leczna Ativo 91 / 89 40% 1 27.11.2026 -
Kévin Denkey FC Cincinnati Ativo 131 / 116 40% 3 26.11.2026 -
Juan Cruz de los Santos Nacional Ativo 127 / 120 40% 3 25.11.2026 -
Marcelo Allende Mamelodi Sundowns Ativo 123 / 127 40% 2 25.11.2026 -
Bradley Zwane SuperSport United Ativo 126 / 124 40% 1 23.11.2026 -
Amar Memić Viktoria Plzen Ativo 127 / 135 40% 1 23.11.2026 -
Cameron Archer Southampton Ativo 125 / 123 40% 2 21.11.2026 -
Peter Valjent FK Senica Ativo 121 / 113 40% 1 21.11.2026 -
Fiete Arp OB Ativo 132 / 134 40% 2 19.11.2026 -
Isaiah Jones Luton Town Ativo 131 / 119 40% 1 19.11.2026 -
Jack McGlynn Stoke City Ativo 134 / 140 40% 1 19.11.2026 -
Jesus Ferreira Seattle Sounders Ativo 120 / 133 40% 2 17.11.2026 -
Facundo Batista Penarol Ativo 122 / 124 40% 2 16.11.2026 -
Alexander Díaz Deportivo Riestra Ativo 124 / 111 40% 2 16.11.2026 -
Matías Contrera Hrvatski Dragovoljac Ativo 103 / 108 40% 1 15.11.2026 -
Wessam Abou Ali Columbus Crew Ativo 126 / 125 40% 2 14.11.2026 -
Nikita Krivtsov Krasnodar Ativo 120 / 119 40% 1 14.11.2026 -
Dwight McNeil Crystal Palace Ativo 141 / 146 40% 1 13.11.2026 -
Justo Giani Umraniyespor Ativo 117 / 112 40% 5 12.11.2026 -
Tiago Pucciarelli IF Elfsborg Ativo 99 / 115 40% 2 11.11.2026 -
Alexis Cuello San Lorenzo Ativo 130 / 129 40% 1 11.11.2026 -
Alejo Cruz Juventud Ativo 119 / 112 40% 4 09.11.2026 -
Efraín Álvarez Aston Villa Ativo 133 / 121 40% 2 09.11.2026 -
Bamba Dieng Crvena Zvezda Ativo 131 / 132 40% 1 09.11.2026 -
Talles Magno New York City Ativo 129 / 140 40% 2 07.11.2026 -
Etiosa Ighodaro Kaizer Chiefs Ativo 112 / 102 40% 1 04.11.2026 -
Yorbe Vertessen Red Bull Salzburg Ativo 127 / 122 40% 1 03.11.2026 -
Reda Khadra Qarabag Ativo 123 / 126 40% 1 02.11.2026 -
Bruno Larregui Juventud Ativo 120 / 122 40% 2 31.10.2026 -
Telasco Segovia Inter Miami CF Ativo 141 / 128 40% 1 29.10.2026 -
Jens Petter Hauge Bodo/Glimt Ativo 139 / 139 40% 1 28.10.2026 -
Manu Morlanes Mallorca Ativo 143 / 128 40% 1 27.10.2026 -
Joaquín Pereyra Minnesota United FC Ativo 127 / 118 40% 1 27.10.2026 -
Jáder Valencia Deportes Tolima Ativo 110 / 117 40% 1 26.10.2026 -
Andre Brooks Sheffield United Ativo 122 / 125 40% 1 25.10.2026 -
Thomas Carrique Andorra Ativo 115 / 126 40% 1 25.10.2026 -
Jacques Ekomié Wrexham Ativo 118 / 136 40% 1 23.10.2026 -
Tomás Alarcón Colo-Colo Ativo 125 / 119 40% 1 23.10.2026 -
Sorba Thomas Stoke City Ativo 137 / 130 40% 1 22.10.2026 -
Tyrhys Dolan Espanyol Ativo 142 / 138 40% 1 22.10.2026 -
Alex Luna Instituto Ativo 123 / 137 40% 1 22.10.2026 -
Lucas Acosta Liverpool Montevideo Ativo 106 / 119 40% 1 20.10.2026 -
Scott Twine Bristol City Ativo 124 / 118 40% 1 19.10.2026 -
Dejan Joveljić Seattle Sounders Ativo 138 / 117 40% 2 17.10.2026 -
Victor Olatunji Real Salt Lake Ativo 113 / 117 40% 1 17.10.2026 -
Xavier Biscayzacú Defensor Sporting Ativo 121 / 126 40% 2 16.10.2026 -
Bénie Traoré New York City Ativo 129 / 133 40% 1 12.10.2026 -
Leonardo Campana New England Revolution Ativo 121 / 128 40% 1 12.10.2026 -
Emiliano Saliadarre Miramar Misiones Ativo 107 / 110 40% 1 11.10.2026 -
Kelvin Yeboah Minnesota United FC Ativo 130 / 116 40% 1 10.10.2026 -
Josh Sargent Toronto FC Ativo 121 / 134 40% 1 08.10.2026 -
Jorge Moreno Athletic Bilbao Ativo 125 / 128 40% 1 10.09.2026 -
Léyder Morán Once Caldas Ativo 95 / 102 40% 1 09.09.2026 -
Ignacio Perruzzi San Lorenzo Ativo 125 / 120 40% 1 09.09.2026 -
Ivan Giraldo Valencia Ativo 125 / 121 40% 2 08.09.2026 -
Santiago Fernández Talleres Ativo 113 / 126 40% 1 08.09.2026 -
Benjamín Ilama Uruguay Montevideo Ativo 100 / 98 40% 1 07.09.2026 -
Erik Lira Cruz Azul Ativo 131 / 122 40% 1 05.08.2026 -
Jorge Sánchez Atlas Ativo 128 / 120 40% 1 05.08.2026 -
Nicolás Campisi Sportivo Luqueno Ativo 113 / 126 40% 1 05.08.2026 -
Lucas Verza Olimpia Ativo 105 / 104 40% 1 05.08.2026 -
Angel Zamudio Sport Huancayo Ativo 109 / 117 40% 1 03.08.2026 -
Renato Solís Sporting Cristal Ativo 121 / 116 40% 1 03.08.2026 -
Erick Aguirre Monterrey Ativo 115 / 132 40% 1 01.08.2026 -